<?xml version="1.0" encoding="UTF-8" standalone="no" ?>
<gpx xmlns="http://www.topografix.com/GPX/1/1" xmlns:xsi="http://www.w3.org/2001/XMLSchema-instance" xsi:schemaLocation="http://www.topografix.com/GPX/1/1 http://www.topografix.com/GPX/1/1/gpx.xsd" version="1.1" creator="VisuGPX - https://www.visugpx.com">
  <metadata>
    <name>2024-03-02-46-Espere</name>
    <desc><![CDATA[Randonnée de 11km pour environ 180m de dénivelé positif. Balade sur des chemins dans les sous-bois. Peu de difficulté]]></desc>
  </metadata>
  <trk>
    <name><![CDATA[ESPERE FRANCOISE 36]]></name>
    <trkseg>
      <trkpt lat="44.51139" lon="1.37656">
        <ele>144.82</ele>
        <time>2020-01-06T13:01:30Z</time>
      </trkpt>
      <trkpt lat="44.5113" lon="1.37639">
        <ele>144.82</ele>
        <time>2020-01-06T13:03:45Z</time>
      </trkpt>
      <trkpt lat="44.5115" lon="1.3763">
        <ele>144.82</ele>
        <time>2020-01-06T13:04:00Z</time>
      </trkpt>
      <trkpt lat="44.51168" lon="1.37622">
        <ele>144.82</ele>
        <time>2020-01-06T13:04:16Z</time>
      </trkpt>
      <trkpt lat="44.51188" lon="1.37616">
        <ele>144.82</ele>
        <time>2020-01-06T13:04:34Z</time>
      </trkpt>
      <trkpt lat="44.51204" lon="1.37605">
        <ele>144.82</ele>
        <time>2020-01-06T13:05:07Z</time>
      </trkpt>
      <trkpt lat="44.51205" lon="1.37576">
        <ele>144.82</ele>
        <time>2020-01-06T13:05:25Z</time>
      </trkpt>
      <trkpt lat="44.51206" lon="1.3755">
        <ele>144.82</ele>
        <time>2020-01-06T13:05:39Z</time>
      </trkpt>
      <trkpt lat="44.51204" lon="1.37524">
        <ele>145.3</ele>
        <time>2020-01-06T13:05:53Z</time>
      </trkpt>
      <trkpt lat="44.51197" lon="1.37497">
        <ele>145.3</ele>
        <time>2020-01-06T13:06:08Z</time>
      </trkpt>
      <trkpt lat="44.51188" lon="1.37476">
        <ele>145.3</ele>
        <time>2020-01-06T13:06:22Z</time>
      </trkpt>
      <trkpt lat="44.51179" lon="1.37453">
        <ele>145.3</ele>
        <time>2020-01-06T13:06:36Z</time>
      </trkpt>
      <trkpt lat="44.51172" lon="1.37427">
        <ele>145.3</ele>
        <time>2020-01-06T13:06:52Z</time>
      </trkpt>
      <trkpt lat="44.51159" lon="1.37406">
        <ele>145.3</ele>
        <time>2020-01-06T13:07:07Z</time>
      </trkpt>
      <trkpt lat="44.51144" lon="1.37385">
        <ele>145.3</ele>
        <time>2020-01-06T13:07:25Z</time>
      </trkpt>
      <trkpt lat="44.51133" lon="1.3736">
        <ele>145.3</ele>
        <time>2020-01-06T13:07:39Z</time>
      </trkpt>
      <trkpt lat="44.51123" lon="1.37339">
        <ele>145.3</ele>
        <time>2020-01-06T13:07:52Z</time>
      </trkpt>
      <trkpt lat="44.51115" lon="1.37317">
        <ele>145.3</ele>
        <time>2020-01-06T13:08:05Z</time>
      </trkpt>
      <trkpt lat="44.51109" lon="1.37288">
        <ele>145.3</ele>
        <time>2020-01-06T13:08:22Z</time>
      </trkpt>
      <trkpt lat="44.511" lon="1.37259">
        <ele>145.3</ele>
        <time>2020-01-06T13:08:40Z</time>
      </trkpt>
      <trkpt lat="44.5108" lon="1.37244">
        <ele>144.82</ele>
        <time>2020-01-06T13:08:59Z</time>
      </trkpt>
      <trkpt lat="44.51065" lon="1.37235">
        <ele>144.82</ele>
        <time>2020-01-06T13:09:32Z</time>
      </trkpt>
      <trkpt lat="44.51046" lon="1.3723">
        <ele>144.82</ele>
        <time>2020-01-06T13:09:49Z</time>
      </trkpt>
      <trkpt lat="44.51026" lon="1.37231">
        <ele>144.82</ele>
        <time>2020-01-06T13:10:07Z</time>
      </trkpt>
      <trkpt lat="44.51005" lon="1.37236">
        <ele>144.82</ele>
        <time>2020-01-06T13:10:23Z</time>
      </trkpt>
      <trkpt lat="44.50985" lon="1.37234">
        <ele>144.82</ele>
        <time>2020-01-06T13:10:39Z</time>
      </trkpt>
      <trkpt lat="44.50966" lon="1.3723">
        <ele>144.34</ele>
        <time>2020-01-06T13:10:55Z</time>
      </trkpt>
      <trkpt lat="44.50944" lon="1.37228">
        <ele>144.34</ele>
        <time>2020-01-06T13:11:13Z</time>
      </trkpt>
      <trkpt lat="44.50923" lon="1.37223">
        <ele>144.34</ele>
        <time>2020-01-06T13:11:31Z</time>
      </trkpt>
      <trkpt lat="44.50904" lon="1.37213">
        <ele>144.34</ele>
        <time>2020-01-06T13:11:50Z</time>
      </trkpt>
      <trkpt lat="44.50897" lon="1.37188">
        <ele>144.34</ele>
        <time>2020-01-06T13:12:06Z</time>
      </trkpt>
      <trkpt lat="44.50881" lon="1.37175">
        <ele>144.34</ele>
        <time>2020-01-06T13:12:22Z</time>
      </trkpt>
      <trkpt lat="44.50864" lon="1.37165">
        <ele>144.34</ele>
        <time>2020-01-06T13:12:38Z</time>
      </trkpt>
      <trkpt lat="44.50846" lon="1.37158">
        <ele>144.34</ele>
        <time>2020-01-06T13:12:53Z</time>
      </trkpt>
      <trkpt lat="44.50827" lon="1.3715">
        <ele>144.34</ele>
        <time>2020-01-06T13:13:08Z</time>
      </trkpt>
      <trkpt lat="44.50807" lon="1.37141">
        <ele>144.34</ele>
        <time>2020-01-06T13:13:24Z</time>
      </trkpt>
      <trkpt lat="44.5079" lon="1.37131">
        <ele>144.34</ele>
        <time>2020-01-06T13:13:40Z</time>
      </trkpt>
      <trkpt lat="44.50771" lon="1.37121">
        <ele>144.34</ele>
        <time>2020-01-06T13:13:56Z</time>
      </trkpt>
      <trkpt lat="44.50753" lon="1.37111">
        <ele>144.34</ele>
        <time>2020-01-06T13:14:11Z</time>
      </trkpt>
      <trkpt lat="44.50734" lon="1.37101">
        <ele>144.34</ele>
        <time>2020-01-06T13:14:28Z</time>
      </trkpt>
      <trkpt lat="44.50716" lon="1.37092">
        <ele>144.34</ele>
        <time>2020-01-06T13:14:44Z</time>
      </trkpt>
      <trkpt lat="44.50698" lon="1.37083">
        <ele>144.34</ele>
        <time>2020-01-06T13:15:00Z</time>
      </trkpt>
      <trkpt lat="44.50681" lon="1.37073">
        <ele>144.34</ele>
        <time>2020-01-06T13:15:15Z</time>
      </trkpt>
      <trkpt lat="44.50663" lon="1.37062">
        <ele>144.34</ele>
        <time>2020-01-06T13:15:31Z</time>
      </trkpt>
      <trkpt lat="44.50646" lon="1.37052">
        <ele>144.34</ele>
        <time>2020-01-06T13:15:46Z</time>
      </trkpt>
      <trkpt lat="44.50629" lon="1.37039">
        <ele>144.34</ele>
        <time>2020-01-06T13:16:02Z</time>
      </trkpt>
      <trkpt lat="44.5061" lon="1.37027">
        <ele>144.34</ele>
        <time>2020-01-06T13:16:22Z</time>
      </trkpt>
      <trkpt lat="44.50592" lon="1.37017">
        <ele>144.34</ele>
        <time>2020-01-06T13:16:37Z</time>
      </trkpt>
      <trkpt lat="44.50576" lon="1.37007">
        <ele>143.85</ele>
        <time>2020-01-06T13:16:59Z</time>
      </trkpt>
      <trkpt lat="44.50558" lon="1.36997">
        <ele>143.85</ele>
        <time>2020-01-06T13:17:14Z</time>
      </trkpt>
      <trkpt lat="44.5054" lon="1.36986">
        <ele>143.85</ele>
        <time>2020-01-06T13:17:29Z</time>
      </trkpt>
      <trkpt lat="44.50523" lon="1.36975">
        <ele>143.85</ele>
        <time>2020-01-06T13:17:42Z</time>
      </trkpt>
      <trkpt lat="44.50508" lon="1.3696">
        <ele>143.85</ele>
        <time>2020-01-06T13:17:58Z</time>
      </trkpt>
      <trkpt lat="44.50492" lon="1.36945">
        <ele>143.85</ele>
        <time>2020-01-06T13:18:12Z</time>
      </trkpt>
      <trkpt lat="44.50478" lon="1.36929">
        <ele>143.85</ele>
        <time>2020-01-06T13:18:26Z</time>
      </trkpt>
      <trkpt lat="44.50462" lon="1.36913">
        <ele>143.85</ele>
        <time>2020-01-06T13:18:40Z</time>
      </trkpt>
      <trkpt lat="44.50447" lon="1.36896">
        <ele>143.85</ele>
        <time>2020-01-06T13:18:54Z</time>
      </trkpt>
      <trkpt lat="44.50432" lon="1.36878">
        <ele>143.85</ele>
        <time>2020-01-06T13:19:08Z</time>
      </trkpt>
      <trkpt lat="44.50417" lon="1.36859">
        <ele>143.85</ele>
        <time>2020-01-06T13:19:24Z</time>
      </trkpt>
      <trkpt lat="44.50404" lon="1.36837">
        <ele>143.85</ele>
        <time>2020-01-06T13:19:46Z</time>
      </trkpt>
      <trkpt lat="44.50394" lon="1.36817">
        <ele>143.85</ele>
        <time>2020-01-06T13:20:06Z</time>
      </trkpt>
      <trkpt lat="44.50383" lon="1.36793">
        <ele>143.85</ele>
        <time>2020-01-06T13:20:21Z</time>
      </trkpt>
      <trkpt lat="44.5037" lon="1.36772">
        <ele>143.85</ele>
        <time>2020-01-06T13:20:36Z</time>
      </trkpt>
      <trkpt lat="44.50357" lon="1.36753">
        <ele>143.85</ele>
        <time>2020-01-06T13:20:50Z</time>
      </trkpt>
      <trkpt lat="44.50343" lon="1.36733">
        <ele>143.37</ele>
        <time>2020-01-06T13:21:07Z</time>
      </trkpt>
      <trkpt lat="44.5033" lon="1.36715">
        <ele>143.37</ele>
        <time>2020-01-06T13:21:24Z</time>
      </trkpt>
      <trkpt lat="44.50315" lon="1.36696">
        <ele>143.37</ele>
        <time>2020-01-06T13:21:42Z</time>
      </trkpt>
      <trkpt lat="44.50302" lon="1.36679">
        <ele>143.37</ele>
        <time>2020-01-06T13:21:57Z</time>
      </trkpt>
      <trkpt lat="44.50289" lon="1.36659">
        <ele>143.37</ele>
        <time>2020-01-06T13:22:12Z</time>
      </trkpt>
      <trkpt lat="44.50276" lon="1.36637">
        <ele>143.37</ele>
        <time>2020-01-06T13:22:27Z</time>
      </trkpt>
      <trkpt lat="44.50262" lon="1.36617">
        <ele>142.89</ele>
        <time>2020-01-06T13:22:42Z</time>
      </trkpt>
      <trkpt lat="44.50248" lon="1.366">
        <ele>142.89</ele>
        <time>2020-01-06T13:22:57Z</time>
      </trkpt>
      <trkpt lat="44.50233" lon="1.36582">
        <ele>142.89</ele>
        <time>2020-01-06T13:23:12Z</time>
      </trkpt>
      <trkpt lat="44.50217" lon="1.36564">
        <ele>142.89</ele>
        <time>2020-01-06T13:23:27Z</time>
      </trkpt>
      <trkpt lat="44.50204" lon="1.36545">
        <ele>142.89</ele>
        <time>2020-01-06T13:23:42Z</time>
      </trkpt>
      <trkpt lat="44.50189" lon="1.36529">
        <ele>142.41</ele>
        <time>2020-01-06T13:24:01Z</time>
      </trkpt>
      <trkpt lat="44.50172" lon="1.36512">
        <ele>142.41</ele>
        <time>2020-01-06T13:24:18Z</time>
      </trkpt>
      <trkpt lat="44.50158" lon="1.36495">
        <ele>142.41</ele>
        <time>2020-01-06T13:24:33Z</time>
      </trkpt>
      <trkpt lat="44.50152" lon="1.36478">
        <ele>142.41</ele>
        <time>2020-01-06T13:24:56Z</time>
      </trkpt>
      <trkpt lat="44.50165" lon="1.36454">
        <ele>141.93</ele>
        <time>2020-01-06T13:25:24Z</time>
      </trkpt>
      <trkpt lat="44.50175" lon="1.36427">
        <ele>141.93</ele>
        <time>2020-01-06T13:25:45Z</time>
      </trkpt>
      <trkpt lat="44.50185" lon="1.36399">
        <ele>141.93</ele>
        <time>2020-01-06T13:26:13Z</time>
      </trkpt>
      <trkpt lat="44.50196" lon="1.36367">
        <ele>141.93</ele>
        <time>2020-01-06T13:26:40Z</time>
      </trkpt>
      <trkpt lat="44.50206" lon="1.36333">
        <ele>141.93</ele>
        <time>2020-01-06T13:27:19Z</time>
      </trkpt>
      <trkpt lat="44.50222" lon="1.36302">
        <ele>141.93</ele>
        <time>2020-01-06T13:28:02Z</time>
      </trkpt>
      <trkpt lat="44.50234" lon="1.36276">
        <ele>142.41</ele>
        <time>2020-01-06T13:28:38Z</time>
      </trkpt>
      <trkpt lat="44.50249" lon="1.36255">
        <ele>142.41</ele>
        <time>2020-01-06T13:29:22Z</time>
      </trkpt>
      <trkpt lat="44.50264" lon="1.36233">
        <ele>142.89</ele>
        <time>2020-01-06T13:29:53Z</time>
      </trkpt>
      <trkpt lat="44.5028" lon="1.36214">
        <ele>143.37</ele>
        <time>2020-01-06T13:30:24Z</time>
      </trkpt>
      <trkpt lat="44.50297" lon="1.36201">
        <ele>177.98</ele>
        <time>2020-01-06T13:30:53Z</time>
      </trkpt>
      <trkpt lat="44.50315" lon="1.36186">
        <ele>181.83</ele>
        <time>2020-01-06T13:31:23Z</time>
      </trkpt>
      <trkpt lat="44.50333" lon="1.36172">
        <ele>185.67</ele>
        <time>2020-01-06T13:31:51Z</time>
      </trkpt>
      <trkpt lat="44.50352" lon="1.36155">
        <ele>189.52</ele>
        <time>2020-01-06T13:32:19Z</time>
      </trkpt>
      <trkpt lat="44.50369" lon="1.36137">
        <ele>192.88</ele>
        <time>2020-01-06T13:32:47Z</time>
      </trkpt>
      <trkpt lat="44.50389" lon="1.36117">
        <ele>195.77</ele>
        <time>2020-01-06T13:33:17Z</time>
      </trkpt>
      <trkpt lat="44.50407" lon="1.36099">
        <ele>197.21</ele>
        <time>2020-01-06T13:35:03Z</time>
      </trkpt>
      <trkpt lat="44.50422" lon="1.36084">
        <ele>198.17</ele>
        <time>2020-01-06T13:35:28Z</time>
      </trkpt>
      <trkpt lat="44.5044" lon="1.36064">
        <ele>198.65</ele>
        <time>2020-01-06T13:35:48Z</time>
      </trkpt>
      <trkpt lat="44.50458" lon="1.36045">
        <ele>198.65</ele>
        <time>2020-01-06T13:36:05Z</time>
      </trkpt>
      <trkpt lat="44.50478" lon="1.36027">
        <ele>199.13</ele>
        <time>2020-01-06T13:36:23Z</time>
      </trkpt>
      <trkpt lat="44.50499" lon="1.36006">
        <ele>199.61</ele>
        <time>2020-01-06T13:36:41Z</time>
      </trkpt>
      <trkpt lat="44.50518" lon="1.35984">
        <ele>201.53</ele>
        <time>2020-01-06T13:36:59Z</time>
      </trkpt>
      <trkpt lat="44.50537" lon="1.35965">
        <ele>203.46</ele>
        <time>2020-01-06T13:37:17Z</time>
      </trkpt>
      <trkpt lat="44.50555" lon="1.35946">
        <ele>204.9</ele>
        <time>2020-01-06T13:37:35Z</time>
      </trkpt>
      <trkpt lat="44.50575" lon="1.3593">
        <ele>205.86</ele>
        <time>2020-01-06T13:37:53Z</time>
      </trkpt>
      <trkpt lat="44.50596" lon="1.35913">
        <ele>206.34</ele>
        <time>2020-01-06T13:38:11Z</time>
      </trkpt>
      <trkpt lat="44.50618" lon="1.35899">
        <ele>206.34</ele>
        <time>2020-01-06T13:38:31Z</time>
      </trkpt>
      <trkpt lat="44.50641" lon="1.3588">
        <ele>206.34</ele>
        <time>2020-01-06T13:39:00Z</time>
      </trkpt>
      <trkpt lat="44.50663" lon="1.35867">
        <ele>206.34</ele>
        <time>2020-01-06T13:39:23Z</time>
      </trkpt>
      <trkpt lat="44.50684" lon="1.35856">
        <ele>206.82</ele>
        <time>2020-01-06T13:39:39Z</time>
      </trkpt>
      <trkpt lat="44.50702" lon="1.35848">
        <ele>207.78</ele>
        <time>2020-01-06T13:39:53Z</time>
      </trkpt>
      <trkpt lat="44.5072" lon="1.35839">
        <ele>208.26</ele>
        <time>2020-01-06T13:40:11Z</time>
      </trkpt>
      <trkpt lat="44.50738" lon="1.35826">
        <ele>209.7</ele>
        <time>2020-01-06T13:40:32Z</time>
      </trkpt>
      <trkpt lat="44.50758" lon="1.35813">
        <ele>211.63</ele>
        <time>2020-01-06T13:40:51Z</time>
      </trkpt>
      <trkpt lat="44.50781" lon="1.35802">
        <ele>213.55</ele>
        <time>2020-01-06T13:41:10Z</time>
      </trkpt>
      <trkpt lat="44.508" lon="1.35789">
        <ele>213.55</ele>
        <time>2020-01-06T13:41:30Z</time>
      </trkpt>
      <trkpt lat="44.50819" lon="1.35779">
        <ele>214.03</ele>
        <time>2020-01-06T13:41:48Z</time>
      </trkpt>
      <trkpt lat="44.50838" lon="1.35766">
        <ele>214.99</ele>
        <time>2020-01-06T13:42:07Z</time>
      </trkpt>
      <trkpt lat="44.50857" lon="1.35753">
        <ele>215.47</ele>
        <time>2020-01-06T13:42:26Z</time>
      </trkpt>
      <trkpt lat="44.50876" lon="1.35739">
        <ele>215.95</ele>
        <time>2020-01-06T13:42:44Z</time>
      </trkpt>
      <trkpt lat="44.50895" lon="1.35727">
        <ele>216.91</ele>
        <time>2020-01-06T13:43:05Z</time>
      </trkpt>
      <trkpt lat="44.50914" lon="1.35714">
        <ele>218.36</ele>
        <time>2020-01-06T13:43:26Z</time>
      </trkpt>
      <trkpt lat="44.50934" lon="1.35699">
        <ele>219.32</ele>
        <time>2020-01-06T13:43:46Z</time>
      </trkpt>
      <trkpt lat="44.50952" lon="1.35684">
        <ele>220.76</ele>
        <time>2020-01-06T13:44:06Z</time>
      </trkpt>
      <trkpt lat="44.5097" lon="1.3567">
        <ele>221.72</ele>
        <time>2020-01-06T13:44:25Z</time>
      </trkpt>
      <trkpt lat="44.50988" lon="1.35656">
        <ele>223.16</ele>
        <time>2020-01-06T13:44:44Z</time>
      </trkpt>
      <trkpt lat="44.51008" lon="1.35646">
        <ele>224.12</ele>
        <time>2020-01-06T13:45:04Z</time>
      </trkpt>
      <trkpt lat="44.51028" lon="1.35637">
        <ele>225.09</ele>
        <time>2020-01-06T13:45:21Z</time>
      </trkpt>
      <trkpt lat="44.51046" lon="1.35627">
        <ele>226.05</ele>
        <time>2020-01-06T13:45:39Z</time>
      </trkpt>
      <trkpt lat="44.51068" lon="1.35616">
        <ele>226.53</ele>
        <time>2020-01-06T13:45:58Z</time>
      </trkpt>
      <trkpt lat="44.51088" lon="1.35606">
        <ele>227.97</ele>
        <time>2020-01-06T13:46:17Z</time>
      </trkpt>
      <trkpt lat="44.51109" lon="1.35594">
        <ele>229.41</ele>
        <time>2020-01-06T13:46:36Z</time>
      </trkpt>
      <trkpt lat="44.51128" lon="1.35577">
        <ele>230.37</ele>
        <time>2020-01-06T13:46:54Z</time>
      </trkpt>
      <trkpt lat="44.51147" lon="1.35563">
        <ele>232.78</ele>
        <time>2020-01-06T13:47:13Z</time>
      </trkpt>
      <trkpt lat="44.51164" lon="1.35545">
        <ele>234.7</ele>
        <time>2020-01-06T13:47:32Z</time>
      </trkpt>
      <trkpt lat="44.5118" lon="1.35524">
        <ele>236.14</ele>
        <time>2020-01-06T13:47:52Z</time>
      </trkpt>
      <trkpt lat="44.51197" lon="1.35505">
        <ele>238.06</ele>
        <time>2020-01-06T13:48:11Z</time>
      </trkpt>
      <trkpt lat="44.51215" lon="1.35487">
        <ele>239.51</ele>
        <time>2020-01-06T13:48:30Z</time>
      </trkpt>
      <trkpt lat="44.51231" lon="1.3547">
        <ele>240.47</ele>
        <time>2020-01-06T13:48:47Z</time>
      </trkpt>
      <trkpt lat="44.51248" lon="1.3545">
        <ele>241.43</ele>
        <time>2020-01-06T13:49:05Z</time>
      </trkpt>
      <trkpt lat="44.51265" lon="1.3543">
        <ele>242.39</ele>
        <time>2020-01-06T13:49:23Z</time>
      </trkpt>
      <trkpt lat="44.51281" lon="1.35413">
        <ele>243.83</ele>
        <time>2020-01-06T13:49:40Z</time>
      </trkpt>
      <trkpt lat="44.51296" lon="1.35392">
        <ele>246.23</ele>
        <time>2020-01-06T13:54:39Z</time>
      </trkpt>
      <trkpt lat="44.51315" lon="1.35379">
        <ele>248.16</ele>
        <time>2020-01-06T13:55:02Z</time>
      </trkpt>
      <trkpt lat="44.51333" lon="1.3537">
        <ele>249.6</ele>
        <time>2020-01-06T13:55:22Z</time>
      </trkpt>
      <trkpt lat="44.51353" lon="1.35357">
        <ele>251.04</ele>
        <time>2020-01-06T13:55:42Z</time>
      </trkpt>
      <trkpt lat="44.51368" lon="1.35343">
        <ele>252.48</ele>
        <time>2020-01-06T13:56:06Z</time>
      </trkpt>
      <trkpt lat="44.51386" lon="1.3534">
        <ele>252.96</ele>
        <time>2020-01-06T13:56:33Z</time>
      </trkpt>
      <trkpt lat="44.51404" lon="1.35333">
        <ele>253.44</ele>
        <time>2020-01-06T13:56:50Z</time>
      </trkpt>
      <trkpt lat="44.51427" lon="1.35329">
        <ele>253.93</ele>
        <time>2020-01-06T13:57:08Z</time>
      </trkpt>
      <trkpt lat="44.5145" lon="1.35325">
        <ele>254.41</ele>
        <time>2020-01-06T13:57:27Z</time>
      </trkpt>
      <trkpt lat="44.51473" lon="1.35326">
        <ele>254.41</ele>
        <time>2020-01-06T13:57:44Z</time>
      </trkpt>
      <trkpt lat="44.51494" lon="1.35329">
        <ele>254.41</ele>
        <time>2020-01-06T13:57:59Z</time>
      </trkpt>
      <trkpt lat="44.51514" lon="1.35328">
        <ele>252.96</ele>
        <time>2020-01-06T13:58:13Z</time>
      </trkpt>
      <trkpt lat="44.51535" lon="1.35325">
        <ele>252.96</ele>
        <time>2020-01-06T13:58:27Z</time>
      </trkpt>
      <trkpt lat="44.51555" lon="1.35325">
        <ele>252.96</ele>
        <time>2020-01-06T13:58:42Z</time>
      </trkpt>
      <trkpt lat="44.51576" lon="1.35326">
        <ele>252.48</ele>
        <time>2020-01-06T13:58:58Z</time>
      </trkpt>
      <trkpt lat="44.51595" lon="1.35327">
        <ele>252.48</ele>
        <time>2020-01-06T13:59:14Z</time>
      </trkpt>
      <trkpt lat="44.51616" lon="1.35328">
        <ele>252.48</ele>
        <time>2020-01-06T13:59:31Z</time>
      </trkpt>
      <trkpt lat="44.51635" lon="1.35321">
        <ele>252.48</ele>
        <time>2020-01-06T13:59:47Z</time>
      </trkpt>
      <trkpt lat="44.51656" lon="1.35319">
        <ele>253.93</ele>
        <time>2020-01-06T14:00:05Z</time>
      </trkpt>
      <trkpt lat="44.51679" lon="1.3532">
        <ele>256.33</ele>
        <time>2020-01-06T14:00:26Z</time>
      </trkpt>
      <trkpt lat="44.51683" lon="1.35315">
        <ele>256.81</ele>
        <time>2020-01-06T14:01:44Z</time>
      </trkpt>
      <trkpt lat="44.51705" lon="1.35319">
        <ele>257.29</ele>
        <time>2020-01-06T14:02:01Z</time>
      </trkpt>
      <trkpt lat="44.51727" lon="1.35311">
        <ele>257.77</ele>
        <time>2020-01-06T14:02:19Z</time>
      </trkpt>
      <trkpt lat="44.51748" lon="1.35298">
        <ele>258.25</ele>
        <time>2020-01-06T14:02:37Z</time>
      </trkpt>
      <trkpt lat="44.51772" lon="1.35284">
        <ele>258.25</ele>
        <time>2020-01-06T14:02:54Z</time>
      </trkpt>
      <trkpt lat="44.51795" lon="1.35275">
        <ele>259.21</ele>
        <time>2020-01-06T14:03:12Z</time>
      </trkpt>
      <trkpt lat="44.51818" lon="1.35273">
        <ele>259.21</ele>
        <time>2020-01-06T14:03:28Z</time>
      </trkpt>
      <trkpt lat="44.51839" lon="1.35272">
        <ele>259.21</ele>
        <time>2020-01-06T14:03:45Z</time>
      </trkpt>
      <trkpt lat="44.51861" lon="1.35274">
        <ele>259.21</ele>
        <time>2020-01-06T14:04:01Z</time>
      </trkpt>
      <trkpt lat="44.51883" lon="1.35277">
        <ele>259.21</ele>
        <time>2020-01-06T14:04:17Z</time>
      </trkpt>
      <trkpt lat="44.51904" lon="1.3528">
        <ele>257.77</ele>
        <time>2020-01-06T14:04:34Z</time>
      </trkpt>
      <trkpt lat="44.51926" lon="1.35287">
        <ele>256.81</ele>
        <time>2020-01-06T14:04:51Z</time>
      </trkpt>
      <trkpt lat="44.51946" lon="1.35295">
        <ele>256.33</ele>
        <time>2020-01-06T14:05:06Z</time>
      </trkpt>
      <trkpt lat="44.51965" lon="1.35299">
        <ele>256.33</ele>
        <time>2020-01-06T14:05:21Z</time>
      </trkpt>
      <trkpt lat="44.51984" lon="1.35296">
        <ele>256.33</ele>
        <time>2020-01-06T14:05:36Z</time>
      </trkpt>
      <trkpt lat="44.52" lon="1.35286">
        <ele>257.77</ele>
        <time>2020-01-06T14:05:49Z</time>
      </trkpt>
      <trkpt lat="44.52015" lon="1.35267">
        <ele>258.73</ele>
        <time>2020-01-06T14:06:05Z</time>
      </trkpt>
      <trkpt lat="44.52023" lon="1.35245">
        <ele>258.73</ele>
        <time>2020-01-06T14:06:17Z</time>
      </trkpt>
      <trkpt lat="44.52031" lon="1.35206">
        <ele>259.21</ele>
        <time>2020-01-06T14:06:42Z</time>
      </trkpt>
      <trkpt lat="44.5204" lon="1.35175">
        <ele>258.25</ele>
        <time>2020-01-06T14:07:36Z</time>
      </trkpt>
      <trkpt lat="44.52045" lon="1.35154">
        <ele>258.25</ele>
        <time>2020-01-06T14:07:51Z</time>
      </trkpt>
      <trkpt lat="44.5206" lon="1.35166">
        <ele>258.25</ele>
        <time>2020-01-06T14:08:07Z</time>
      </trkpt>
      <trkpt lat="44.52074" lon="1.35184">
        <ele>257.77</ele>
        <time>2020-01-06T14:08:25Z</time>
      </trkpt>
      <trkpt lat="44.52087" lon="1.35205">
        <ele>257.29</ele>
        <time>2020-01-06T14:08:41Z</time>
      </trkpt>
      <trkpt lat="44.52103" lon="1.35225">
        <ele>256.81</ele>
        <time>2020-01-06T14:08:57Z</time>
      </trkpt>
      <trkpt lat="44.52113" lon="1.35243">
        <ele>256.81</ele>
        <time>2020-01-06T14:09:15Z</time>
      </trkpt>
      <trkpt lat="44.52118" lon="1.35269">
        <ele>258.73</ele>
        <time>2020-01-06T14:09:33Z</time>
      </trkpt>
      <trkpt lat="44.52134" lon="1.35282">
        <ele>259.21</ele>
        <time>2020-01-06T14:09:51Z</time>
      </trkpt>
      <trkpt lat="44.52152" lon="1.35294">
        <ele>259.21</ele>
        <time>2020-01-06T14:10:10Z</time>
      </trkpt>
      <trkpt lat="44.52172" lon="1.35306">
        <ele>260.65</ele>
        <time>2020-01-06T14:10:29Z</time>
      </trkpt>
      <trkpt lat="44.52191" lon="1.35315">
        <ele>261.14</ele>
        <time>2020-01-06T14:10:44Z</time>
      </trkpt>
      <trkpt lat="44.52208" lon="1.35326">
        <ele>261.62</ele>
        <time>2020-01-06T14:11:01Z</time>
      </trkpt>
      <trkpt lat="44.52228" lon="1.35342">
        <ele>263.54</ele>
        <time>2020-01-06T14:11:21Z</time>
      </trkpt>
      <trkpt lat="44.52252" lon="1.35359">
        <ele>264.5</ele>
        <time>2020-01-06T14:11:40Z</time>
      </trkpt>
      <trkpt lat="44.52266" lon="1.3538">
        <ele>265.46</ele>
        <time>2020-01-06T14:11:58Z</time>
      </trkpt>
      <trkpt lat="44.52265" lon="1.3541">
        <ele>266.42</ele>
        <time>2020-01-06T14:12:17Z</time>
      </trkpt>
      <trkpt lat="44.52262" lon="1.35437">
        <ele>266.9</ele>
        <time>2020-01-06T14:12:33Z</time>
      </trkpt>
      <trkpt lat="44.5227" lon="1.35463">
        <ele>267.38</ele>
        <time>2020-01-06T14:12:50Z</time>
      </trkpt>
      <trkpt lat="44.52284" lon="1.35482">
        <ele>267.38</ele>
        <time>2020-01-06T14:13:10Z</time>
      </trkpt>
      <trkpt lat="44.52299" lon="1.35505">
        <ele>267.38</ele>
        <time>2020-01-06T14:13:28Z</time>
      </trkpt>
      <trkpt lat="44.52312" lon="1.35528">
        <ele>267.86</ele>
        <time>2020-01-06T14:13:45Z</time>
      </trkpt>
      <trkpt lat="44.52324" lon="1.35552">
        <ele>268.35</ele>
        <time>2020-01-06T14:14:02Z</time>
      </trkpt>
      <trkpt lat="44.52333" lon="1.35572">
        <ele>269.31</ele>
        <time>2020-01-06T14:14:45Z</time>
      </trkpt>
      <trkpt lat="44.52343" lon="1.35594">
        <ele>269.31</ele>
        <time>2020-01-06T14:15:01Z</time>
      </trkpt>
      <trkpt lat="44.52353" lon="1.35617">
        <ele>269.31</ele>
        <time>2020-01-06T14:15:17Z</time>
      </trkpt>
      <trkpt lat="44.52362" lon="1.35644">
        <ele>270.27</ele>
        <time>2020-01-06T14:15:34Z</time>
      </trkpt>
      <trkpt lat="44.5237" lon="1.35669">
        <ele>271.23</ele>
        <time>2020-01-06T14:15:51Z</time>
      </trkpt>
      <trkpt lat="44.52377" lon="1.35694">
        <ele>272.19</ele>
        <time>2020-01-06T14:16:07Z</time>
      </trkpt>
      <trkpt lat="44.52382" lon="1.35721">
        <ele>273.15</ele>
        <time>2020-01-06T14:16:23Z</time>
      </trkpt>
      <trkpt lat="44.52389" lon="1.35748">
        <ele>273.63</ele>
        <time>2020-01-06T14:16:39Z</time>
      </trkpt>
      <trkpt lat="44.52397" lon="1.35773">
        <ele>274.11</ele>
        <time>2020-01-06T14:16:55Z</time>
      </trkpt>
      <trkpt lat="44.52411" lon="1.3579">
        <ele>274.11</ele>
        <time>2020-01-06T14:17:09Z</time>
      </trkpt>
      <trkpt lat="44.52429" lon="1.35801">
        <ele>272.67</ele>
        <time>2020-01-06T14:17:25Z</time>
      </trkpt>
      <trkpt lat="44.52447" lon="1.35814">
        <ele>271.71</ele>
        <time>2020-01-06T14:17:41Z</time>
      </trkpt>
      <trkpt lat="44.52459" lon="1.35829">
        <ele>270.27</ele>
        <time>2020-01-06T14:18:17Z</time>
      </trkpt>
      <trkpt lat="44.52474" lon="1.35845">
        <ele>269.79</ele>
        <time>2020-01-06T14:18:38Z</time>
      </trkpt>
      <trkpt lat="44.52489" lon="1.35865">
        <ele>268.83</ele>
        <time>2020-01-06T14:18:57Z</time>
      </trkpt>
      <trkpt lat="44.52505" lon="1.35882">
        <ele>268.35</ele>
        <time>2020-01-06T14:19:15Z</time>
      </trkpt>
      <trkpt lat="44.52523" lon="1.35898">
        <ele>267.38</ele>
        <time>2020-01-06T14:19:32Z</time>
      </trkpt>
      <trkpt lat="44.52541" lon="1.35907">
        <ele>266.42</ele>
        <time>2020-01-06T14:19:47Z</time>
      </trkpt>
      <trkpt lat="44.52561" lon="1.35914">
        <ele>265.46</ele>
        <time>2020-01-06T14:20:04Z</time>
      </trkpt>
      <trkpt lat="44.52579" lon="1.35915">
        <ele>264.98</ele>
        <time>2020-01-06T14:20:22Z</time>
      </trkpt>
      <trkpt lat="44.52597" lon="1.35919">
        <ele>264.98</ele>
        <time>2020-01-06T14:20:33Z</time>
      </trkpt>
      <trkpt lat="44.52622" lon="1.35926">
        <ele>264.5</ele>
        <time>2020-01-06T14:20:58Z</time>
      </trkpt>
      <trkpt lat="44.52648" lon="1.35935">
        <ele>264.02</ele>
        <time>2020-01-06T14:21:18Z</time>
      </trkpt>
      <trkpt lat="44.52669" lon="1.35943">
        <ele>264.02</ele>
        <time>2020-01-06T14:21:35Z</time>
      </trkpt>
      <trkpt lat="44.52679" lon="1.35964">
        <ele>263.06</ele>
        <time>2020-01-06T14:22:21Z</time>
      </trkpt>
      <trkpt lat="44.52686" lon="1.35994">
        <ele>261.62</ele>
        <time>2020-01-06T14:22:46Z</time>
      </trkpt>
      <trkpt lat="44.52695" lon="1.36024">
        <ele>260.65</ele>
        <time>2020-01-06T14:23:06Z</time>
      </trkpt>
      <trkpt lat="44.52703" lon="1.3605">
        <ele>260.17</ele>
        <time>2020-01-06T14:23:24Z</time>
      </trkpt>
      <trkpt lat="44.52714" lon="1.36075">
        <ele>258.73</ele>
        <time>2020-01-06T14:23:41Z</time>
      </trkpt>
      <trkpt lat="44.52729" lon="1.361">
        <ele>257.77</ele>
        <time>2020-01-06T14:24:01Z</time>
      </trkpt>
      <trkpt lat="44.52746" lon="1.36116">
        <ele>257.29</ele>
        <time>2020-01-06T14:24:20Z</time>
      </trkpt>
      <trkpt lat="44.52761" lon="1.36129">
        <ele>256.33</ele>
        <time>2020-01-06T14:25:08Z</time>
      </trkpt>
      <trkpt lat="44.52775" lon="1.36154">
        <ele>256.33</ele>
        <time>2020-01-06T14:25:26Z</time>
      </trkpt>
      <trkpt lat="44.52782" lon="1.36182">
        <ele>257.77</ele>
        <time>2020-01-06T14:25:43Z</time>
      </trkpt>
      <trkpt lat="44.5279" lon="1.36209">
        <ele>258.25</ele>
        <time>2020-01-06T14:26:01Z</time>
      </trkpt>
      <trkpt lat="44.528" lon="1.36237">
        <ele>258.73</ele>
        <time>2020-01-06T14:26:21Z</time>
      </trkpt>
      <trkpt lat="44.52807" lon="1.3627">
        <ele>258.25</ele>
        <time>2020-01-06T14:26:41Z</time>
      </trkpt>
      <trkpt lat="44.52815" lon="1.36303">
        <ele>256.33</ele>
        <time>2020-01-06T14:27:01Z</time>
      </trkpt>
      <trkpt lat="44.52825" lon="1.36333">
        <ele>254.89</ele>
        <time>2020-01-06T14:27:21Z</time>
      </trkpt>
      <trkpt lat="44.52836" lon="1.36361">
        <ele>253.93</ele>
        <time>2020-01-06T14:27:41Z</time>
      </trkpt>
      <trkpt lat="44.52849" lon="1.36395">
        <ele>253.44</ele>
        <time>2020-01-06T14:28:06Z</time>
      </trkpt>
      <trkpt lat="44.52866" lon="1.36421">
        <ele>252.96</ele>
        <time>2020-01-06T14:28:27Z</time>
      </trkpt>
      <trkpt lat="44.52882" lon="1.36444">
        <ele>255.37</ele>
        <time>2020-01-06T14:28:47Z</time>
      </trkpt>
      <trkpt lat="44.52895" lon="1.36468">
        <ele>256.81</ele>
        <time>2020-01-06T14:29:06Z</time>
      </trkpt>
      <trkpt lat="44.52907" lon="1.36492">
        <ele>259.69</ele>
        <time>2020-01-06T14:29:28Z</time>
      </trkpt>
      <trkpt lat="44.52919" lon="1.36515">
        <ele>262.1</ele>
        <time>2020-01-06T14:29:54Z</time>
      </trkpt>
      <trkpt lat="44.52933" lon="1.36536">
        <ele>262.1</ele>
        <time>2020-01-06T14:30:22Z</time>
      </trkpt>
      <trkpt lat="44.5295" lon="1.36553">
        <ele>261.14</ele>
        <time>2020-01-06T14:30:44Z</time>
      </trkpt>
      <trkpt lat="44.52967" lon="1.36564">
        <ele>259.21</ele>
        <time>2020-01-06T14:31:04Z</time>
      </trkpt>
      <trkpt lat="44.52985" lon="1.36571">
        <ele>257.29</ele>
        <time>2020-01-06T14:31:21Z</time>
      </trkpt>
      <trkpt lat="44.53004" lon="1.36581">
        <ele>256.33</ele>
        <time>2020-01-06T14:31:37Z</time>
      </trkpt>
      <trkpt lat="44.5302" lon="1.36594">
        <ele>255.85</ele>
        <time>2020-01-06T14:31:53Z</time>
      </trkpt>
      <trkpt lat="44.53034" lon="1.36611">
        <ele>255.85</ele>
        <time>2020-01-06T14:32:09Z</time>
      </trkpt>
      <trkpt lat="44.53048" lon="1.36632">
        <ele>256.33</ele>
        <time>2020-01-06T14:32:28Z</time>
      </trkpt>
      <trkpt lat="44.53063" lon="1.36651">
        <ele>254.41</ele>
        <time>2020-01-06T14:32:50Z</time>
      </trkpt>
      <trkpt lat="44.53082" lon="1.36666">
        <ele>252</ele>
        <time>2020-01-06T14:33:14Z</time>
      </trkpt>
      <trkpt lat="44.531" lon="1.36678">
        <ele>249.6</ele>
        <time>2020-01-06T14:33:36Z</time>
      </trkpt>
      <trkpt lat="44.53118" lon="1.36689">
        <ele>247.2</ele>
        <time>2020-01-06T14:33:55Z</time>
      </trkpt>
      <trkpt lat="44.53136" lon="1.36701">
        <ele>245.75</ele>
        <time>2020-01-06T14:34:12Z</time>
      </trkpt>
      <trkpt lat="44.53153" lon="1.3671">
        <ele>245.27</ele>
        <time>2020-01-06T14:34:28Z</time>
      </trkpt>
      <trkpt lat="44.5317" lon="1.36724">
        <ele>245.27</ele>
        <time>2020-01-06T14:34:45Z</time>
      </trkpt>
      <trkpt lat="44.53184" lon="1.36743">
        <ele>245.27</ele>
        <time>2020-01-06T14:35:03Z</time>
      </trkpt>
      <trkpt lat="44.53197" lon="1.36761">
        <ele>246.72</ele>
        <time>2020-01-06T14:35:21Z</time>
      </trkpt>
      <trkpt lat="44.53208" lon="1.36777">
        <ele>246.72</ele>
        <time>2020-01-06T14:35:49Z</time>
      </trkpt>
      <trkpt lat="44.5322" lon="1.36792">
        <ele>246.72</ele>
        <time>2020-01-06T14:36:51Z</time>
      </trkpt>
      <trkpt lat="44.53235" lon="1.36809">
        <ele>245.75</ele>
        <time>2020-01-06T14:37:07Z</time>
      </trkpt>
      <trkpt lat="44.53249" lon="1.36825">
        <ele>245.75</ele>
        <time>2020-01-06T14:37:23Z</time>
      </trkpt>
      <trkpt lat="44.53262" lon="1.36842">
        <ele>245.75</ele>
        <time>2020-01-06T14:37:39Z</time>
      </trkpt>
      <trkpt lat="44.53275" lon="1.36859">
        <ele>245.75</ele>
        <time>2020-01-06T14:37:55Z</time>
      </trkpt>
      <trkpt lat="44.53288" lon="1.36878">
        <ele>247.2</ele>
        <time>2020-01-06T14:38:12Z</time>
      </trkpt>
      <trkpt lat="44.53302" lon="1.36893">
        <ele>247.68</ele>
        <time>2020-01-06T14:38:29Z</time>
      </trkpt>
      <trkpt lat="44.53319" lon="1.36903">
        <ele>248.16</ele>
        <time>2020-01-06T14:38:50Z</time>
      </trkpt>
      <trkpt lat="44.53336" lon="1.36908">
        <ele>248.16</ele>
        <time>2020-01-06T14:39:07Z</time>
      </trkpt>
      <trkpt lat="44.53356" lon="1.36911">
        <ele>248.16</ele>
        <time>2020-01-06T14:39:26Z</time>
      </trkpt>
      <trkpt lat="44.53374" lon="1.36912">
        <ele>248.16</ele>
        <time>2020-01-06T14:39:42Z</time>
      </trkpt>
      <trkpt lat="44.53389" lon="1.36905">
        <ele>248.16</ele>
        <time>2020-01-06T14:40:18Z</time>
      </trkpt>
      <trkpt lat="44.53407" lon="1.36897">
        <ele>249.6</ele>
        <time>2020-01-06T14:40:33Z</time>
      </trkpt>
      <trkpt lat="44.53421" lon="1.36904">
        <ele>250.08</ele>
        <time>2020-01-06T14:41:09Z</time>
      </trkpt>
      <trkpt lat="44.53429" lon="1.36929">
        <ele>251.04</ele>
        <time>2020-01-06T14:41:26Z</time>
      </trkpt>
      <trkpt lat="44.53438" lon="1.36951">
        <ele>251.04</ele>
        <time>2020-01-06T14:41:41Z</time>
      </trkpt>
      <trkpt lat="44.53449" lon="1.36973">
        <ele>251.04</ele>
        <time>2020-01-06T14:41:56Z</time>
      </trkpt>
      <trkpt lat="44.53461" lon="1.36993">
        <ele>251.04</ele>
        <time>2020-01-06T14:42:13Z</time>
      </trkpt>
      <trkpt lat="44.53475" lon="1.37014">
        <ele>251.04</ele>
        <time>2020-01-06T14:42:30Z</time>
      </trkpt>
      <trkpt lat="44.53483" lon="1.37039">
        <ele>251.04</ele>
        <time>2020-01-06T14:42:50Z</time>
      </trkpt>
      <trkpt lat="44.53472" lon="1.37061">
        <ele>252</ele>
        <time>2020-01-06T14:43:09Z</time>
      </trkpt>
      <trkpt lat="44.53459" lon="1.3709">
        <ele>252.48</ele>
        <time>2020-01-06T14:43:32Z</time>
      </trkpt>
      <trkpt lat="44.53444" lon="1.37108">
        <ele>251.52</ele>
        <time>2020-01-06T14:44:56Z</time>
      </trkpt>
      <trkpt lat="44.5344" lon="1.37121">
        <ele>251.04</ele>
        <time>2020-01-06T14:46:48Z</time>
      </trkpt>
      <trkpt lat="44.53438" lon="1.37122">
        <ele>250.08</ele>
        <time>2020-01-06T14:47:41Z</time>
      </trkpt>
      <trkpt lat="44.53437" lon="1.37115">
        <ele>251.52</ele>
        <time>2020-01-06T15:10:06Z</time>
      </trkpt>
      <trkpt lat="44.53425" lon="1.3712">
        <ele>252.48</ele>
        <time>2020-01-06T15:12:11Z</time>
      </trkpt>
      <trkpt lat="44.53427" lon="1.37149">
        <ele>249.12</ele>
        <time>2020-01-06T15:12:35Z</time>
      </trkpt>
      <trkpt lat="44.53425" lon="1.37156">
        <ele>248.64</ele>
        <time>2020-01-06T15:13:07Z</time>
      </trkpt>
      <trkpt lat="44.53416" lon="1.37177">
        <ele>246.23</ele>
        <time>2020-01-06T15:13:19Z</time>
      </trkpt>
      <trkpt lat="44.53405" lon="1.37201">
        <ele>243.83</ele>
        <time>2020-01-06T15:13:32Z</time>
      </trkpt>
      <trkpt lat="44.5341" lon="1.37228">
        <ele>240.47</ele>
        <time>2020-01-06T15:13:56Z</time>
      </trkpt>
      <trkpt lat="44.53425" lon="1.37253">
        <ele>237.58</ele>
        <time>2020-01-06T15:14:20Z</time>
      </trkpt>
      <trkpt lat="44.53448" lon="1.37275">
        <ele>234.22</ele>
        <time>2020-01-06T15:14:46Z</time>
      </trkpt>
      <trkpt lat="44.53458" lon="1.37308">
        <ele>231.33</ele>
        <time>2020-01-06T15:15:12Z</time>
      </trkpt>
      <trkpt lat="44.53463" lon="1.37328">
        <ele>224.61</ele>
        <time>2020-01-06T15:15:46Z</time>
      </trkpt>
      <trkpt lat="44.5348" lon="1.37332">
        <ele>217.4</ele>
        <time>2020-01-06T15:16:28Z</time>
      </trkpt>
      <trkpt lat="44.53493" lon="1.37337">
        <ele>210.19</ele>
        <time>2020-01-06T15:17:10Z</time>
      </trkpt>
      <trkpt lat="44.53499" lon="1.37302">
        <ele>204.42</ele>
        <time>2020-01-06T15:17:41Z</time>
      </trkpt>
      <trkpt lat="44.53506" lon="1.37265">
        <ele>199.13</ele>
        <time>2020-01-06T15:18:11Z</time>
      </trkpt>
      <trkpt lat="44.53522" lon="1.37223">
        <ele>192.88</ele>
        <time>2020-01-06T15:18:48Z</time>
      </trkpt>
      <trkpt lat="44.53555" lon="1.37209">
        <ele>190</ele>
        <time>2020-01-06T15:19:29Z</time>
      </trkpt>
      <trkpt lat="44.53566" lon="1.37239">
        <ele>189.52</ele>
        <time>2020-01-06T15:19:50Z</time>
      </trkpt>
      <trkpt lat="44.53574" lon="1.37272">
        <ele>190.96</ele>
        <time>2020-01-06T15:20:14Z</time>
      </trkpt>
      <trkpt lat="44.5358" lon="1.37309">
        <ele>190</ele>
        <time>2020-01-06T15:20:38Z</time>
      </trkpt>
      <trkpt lat="44.53584" lon="1.37343">
        <ele>188.56</ele>
        <time>2020-01-06T15:20:59Z</time>
      </trkpt>
      <trkpt lat="44.53591" lon="1.37375">
        <ele>188.08</ele>
        <time>2020-01-06T15:21:18Z</time>
      </trkpt>
      <trkpt lat="44.53592" lon="1.37406">
        <ele>187.11</ele>
        <time>2020-01-06T15:21:35Z</time>
      </trkpt>
      <trkpt lat="44.5359" lon="1.37444">
        <ele>186.63</ele>
        <time>2020-01-06T15:21:59Z</time>
      </trkpt>
      <trkpt lat="44.53587" lon="1.37485">
        <ele>186.15</ele>
        <time>2020-01-06T15:22:23Z</time>
      </trkpt>
      <trkpt lat="44.53584" lon="1.37524">
        <ele>185.67</ele>
        <time>2020-01-06T15:22:47Z</time>
      </trkpt>
      <trkpt lat="44.53583" lon="1.37563">
        <ele>184.71</ele>
        <time>2020-01-06T15:23:11Z</time>
      </trkpt>
      <trkpt lat="44.5358" lon="1.37606">
        <ele>181.83</ele>
        <time>2020-01-06T15:23:36Z</time>
      </trkpt>
      <trkpt lat="44.53575" lon="1.37644">
        <ele>178.46</ele>
        <time>2020-01-06T15:23:58Z</time>
      </trkpt>
      <trkpt lat="44.53573" lon="1.37682">
        <ele>176.06</ele>
        <time>2020-01-06T15:24:20Z</time>
      </trkpt>
      <trkpt lat="44.53578" lon="1.37728">
        <ele>174.14</ele>
        <time>2020-01-06T15:24:48Z</time>
      </trkpt>
      <trkpt lat="44.53581" lon="1.37768">
        <ele>172.69</ele>
        <time>2020-01-06T15:25:11Z</time>
      </trkpt>
      <trkpt lat="44.53583" lon="1.37807">
        <ele>171.73</ele>
        <time>2020-01-06T15:25:34Z</time>
      </trkpt>
      <trkpt lat="44.53586" lon="1.37844">
        <ele>171.25</ele>
        <time>2020-01-06T15:25:55Z</time>
      </trkpt>
      <trkpt lat="44.53584" lon="1.3788">
        <ele>170.77</ele>
        <time>2020-01-06T15:26:16Z</time>
      </trkpt>
      <trkpt lat="44.53578" lon="1.37921">
        <ele>170.29</ele>
        <time>2020-01-06T15:26:41Z</time>
      </trkpt>
      <trkpt lat="44.53568" lon="1.37962">
        <ele>169.81</ele>
        <time>2020-01-06T15:27:05Z</time>
      </trkpt>
      <trkpt lat="44.53559" lon="1.38001">
        <ele>169.33</ele>
        <time>2020-01-06T15:27:26Z</time>
      </trkpt>
      <trkpt lat="44.53551" lon="1.38042">
        <ele>168.85</ele>
        <time>2020-01-06T15:27:52Z</time>
      </trkpt>
      <trkpt lat="44.53545" lon="1.38081">
        <ele>168.85</ele>
        <time>2020-01-06T15:28:12Z</time>
      </trkpt>
      <trkpt lat="44.53539" lon="1.38115">
        <ele>168.85</ele>
        <time>2020-01-06T15:28:29Z</time>
      </trkpt>
      <trkpt lat="44.53533" lon="1.38144">
        <ele>168.85</ele>
        <time>2020-01-06T15:28:46Z</time>
      </trkpt>
      <trkpt lat="44.53525" lon="1.38169">
        <ele>168.85</ele>
        <time>2020-01-06T15:29:02Z</time>
      </trkpt>
      <trkpt lat="44.5352" lon="1.38195">
        <ele>168.85</ele>
        <time>2020-01-06T15:29:17Z</time>
      </trkpt>
      <trkpt lat="44.53513" lon="1.38218">
        <ele>168.85</ele>
        <time>2020-01-06T15:29:33Z</time>
      </trkpt>
      <trkpt lat="44.53491" lon="1.38225">
        <ele>168.37</ele>
        <time>2020-01-06T15:29:48Z</time>
      </trkpt>
      <trkpt lat="44.53468" lon="1.38231">
        <ele>168.37</ele>
        <time>2020-01-06T15:30:08Z</time>
      </trkpt>
      <trkpt lat="44.5345" lon="1.38253">
        <ele>168.37</ele>
        <time>2020-01-06T15:30:27Z</time>
      </trkpt>
      <trkpt lat="44.5343" lon="1.38268">
        <ele>168.37</ele>
        <time>2020-01-06T15:30:52Z</time>
      </trkpt>
      <trkpt lat="44.53411" lon="1.38285">
        <ele>167.41</ele>
        <time>2020-01-06T15:32:41Z</time>
      </trkpt>
      <trkpt lat="44.53394" lon="1.38305">
        <ele>167.41</ele>
        <time>2020-01-06T15:32:50Z</time>
      </trkpt>
      <trkpt lat="44.53374" lon="1.38321">
        <ele>167.41</ele>
        <time>2020-01-06T15:33:03Z</time>
      </trkpt>
      <trkpt lat="44.53354" lon="1.38331">
        <ele>167.41</ele>
        <time>2020-01-06T15:33:13Z</time>
      </trkpt>
      <trkpt lat="44.5333" lon="1.38334">
        <ele>166.93</ele>
        <time>2020-01-06T15:33:25Z</time>
      </trkpt>
      <trkpt lat="44.53301" lon="1.38334">
        <ele>166.93</ele>
        <time>2020-01-06T15:33:40Z</time>
      </trkpt>
      <trkpt lat="44.53273" lon="1.38331">
        <ele>166.45</ele>
        <time>2020-01-06T15:33:57Z</time>
      </trkpt>
      <trkpt lat="44.53245" lon="1.38334">
        <ele>165.96</ele>
        <time>2020-01-06T15:34:13Z</time>
      </trkpt>
      <trkpt lat="44.53218" lon="1.3834">
        <ele>165.96</ele>
        <time>2020-01-06T15:34:31Z</time>
      </trkpt>
      <trkpt lat="44.5319" lon="1.38348">
        <ele>165.48</ele>
        <time>2020-01-06T15:34:48Z</time>
      </trkpt>
      <trkpt lat="44.53165" lon="1.38363">
        <ele>165.48</ele>
        <time>2020-01-06T15:35:04Z</time>
      </trkpt>
      <trkpt lat="44.53142" lon="1.38381">
        <ele>165</ele>
        <time>2020-01-06T15:35:20Z</time>
      </trkpt>
      <trkpt lat="44.53121" lon="1.38407">
        <ele>165</ele>
        <time>2020-01-06T15:35:39Z</time>
      </trkpt>
      <trkpt lat="44.53104" lon="1.38429">
        <ele>164.52</ele>
        <time>2020-01-06T15:35:58Z</time>
      </trkpt>
      <trkpt lat="44.53082" lon="1.38452">
        <ele>164.04</ele>
        <time>2020-01-06T15:36:27Z</time>
      </trkpt>
      <trkpt lat="44.53062" lon="1.38475">
        <ele>163.56</ele>
        <time>2020-01-06T15:36:49Z</time>
      </trkpt>
      <trkpt lat="44.53043" lon="1.38492">
        <ele>163.56</ele>
        <time>2020-01-06T15:37:09Z</time>
      </trkpt>
      <trkpt lat="44.53021" lon="1.38512">
        <ele>163.08</ele>
        <time>2020-01-06T15:37:31Z</time>
      </trkpt>
      <trkpt lat="44.53004" lon="1.38538">
        <ele>162.6</ele>
        <time>2020-01-06T15:37:51Z</time>
      </trkpt>
      <trkpt lat="44.52982" lon="1.3856">
        <ele>162.12</ele>
        <time>2020-01-06T15:38:15Z</time>
      </trkpt>
      <trkpt lat="44.52958" lon="1.38583">
        <ele>161.64</ele>
        <time>2020-01-06T15:38:43Z</time>
      </trkpt>
      <trkpt lat="44.52938" lon="1.38602">
        <ele>161.16</ele>
        <time>2020-01-06T15:39:04Z</time>
      </trkpt>
      <trkpt lat="44.52918" lon="1.38622">
        <ele>160.68</ele>
        <time>2020-01-06T15:39:21Z</time>
      </trkpt>
      <trkpt lat="44.52899" lon="1.38642">
        <ele>160.2</ele>
        <time>2020-01-06T15:39:39Z</time>
      </trkpt>
      <trkpt lat="44.5288" lon="1.38661">
        <ele>160.2</ele>
        <time>2020-01-06T15:39:58Z</time>
      </trkpt>
      <trkpt lat="44.52862" lon="1.38681">
        <ele>159.72</ele>
        <time>2020-01-06T15:40:16Z</time>
      </trkpt>
      <trkpt lat="44.52841" lon="1.38697">
        <ele>159.72</ele>
        <time>2020-01-06T15:40:36Z</time>
      </trkpt>
      <trkpt lat="44.52814" lon="1.38717">
        <ele>159.24</ele>
        <time>2020-01-06T15:41:09Z</time>
      </trkpt>
      <trkpt lat="44.52791" lon="1.38727">
        <ele>158.75</ele>
        <time>2020-01-06T15:41:29Z</time>
      </trkpt>
      <trkpt lat="44.52765" lon="1.38744">
        <ele>158.27</ele>
        <time>2020-01-06T15:41:54Z</time>
      </trkpt>
      <trkpt lat="44.52738" lon="1.3876">
        <ele>158.27</ele>
        <time>2020-01-06T15:42:17Z</time>
      </trkpt>
      <trkpt lat="44.52712" lon="1.3877">
        <ele>157.79</ele>
        <time>2020-01-06T15:42:38Z</time>
      </trkpt>
      <trkpt lat="44.52689" lon="1.38773">
        <ele>157.31</ele>
        <time>2020-01-06T15:42:58Z</time>
      </trkpt>
      <trkpt lat="44.52662" lon="1.38779">
        <ele>157.31</ele>
        <time>2020-01-06T15:43:18Z</time>
      </trkpt>
      <trkpt lat="44.52637" lon="1.38782">
        <ele>156.83</ele>
        <time>2020-01-06T15:43:38Z</time>
      </trkpt>
      <trkpt lat="44.52609" lon="1.38781">
        <ele>156.35</ele>
        <time>2020-01-06T15:43:58Z</time>
      </trkpt>
      <trkpt lat="44.52583" lon="1.38783">
        <ele>155.87</ele>
        <time>2020-01-06T15:44:16Z</time>
      </trkpt>
      <trkpt lat="44.52558" lon="1.38786">
        <ele>155.87</ele>
        <time>2020-01-06T15:44:33Z</time>
      </trkpt>
      <trkpt lat="44.52534" lon="1.38791">
        <ele>155.39</ele>
        <time>2020-01-06T15:44:52Z</time>
      </trkpt>
      <trkpt lat="44.52513" lon="1.38794">
        <ele>155.39</ele>
        <time>2020-01-06T15:45:08Z</time>
      </trkpt>
      <trkpt lat="44.52491" lon="1.38795">
        <ele>154.91</ele>
        <time>2020-01-06T15:45:38Z</time>
      </trkpt>
      <trkpt lat="44.52472" lon="1.38777">
        <ele>154.91</ele>
        <time>2020-01-06T15:45:59Z</time>
      </trkpt>
      <trkpt lat="44.52454" lon="1.38759">
        <ele>154.43</ele>
        <time>2020-01-06T15:46:19Z</time>
      </trkpt>
      <trkpt lat="44.52436" lon="1.38745">
        <ele>154.43</ele>
        <time>2020-01-06T15:46:36Z</time>
      </trkpt>
      <trkpt lat="44.52411" lon="1.38728">
        <ele>154.43</ele>
        <time>2020-01-06T15:46:58Z</time>
      </trkpt>
      <trkpt lat="44.52396" lon="1.38711">
        <ele>154.43</ele>
        <time>2020-01-06T15:47:13Z</time>
      </trkpt>
      <trkpt lat="44.52376" lon="1.38694">
        <ele>154.43</ele>
        <time>2020-01-06T15:47:30Z</time>
      </trkpt>
      <trkpt lat="44.52359" lon="1.3868">
        <ele>154.43</ele>
        <time>2020-01-06T15:47:46Z</time>
      </trkpt>
      <trkpt lat="44.5234" lon="1.38668">
        <ele>153.95</ele>
        <time>2020-01-06T15:48:05Z</time>
      </trkpt>
      <trkpt lat="44.52323" lon="1.38649">
        <ele>153.95</ele>
        <time>2020-01-06T15:48:20Z</time>
      </trkpt>
      <trkpt lat="44.52309" lon="1.3863">
        <ele>153.95</ele>
        <time>2020-01-06T15:48:35Z</time>
      </trkpt>
      <trkpt lat="44.52297" lon="1.38611">
        <ele>153.95</ele>
        <time>2020-01-06T15:48:49Z</time>
      </trkpt>
      <trkpt lat="44.52283" lon="1.38594">
        <ele>153.95</ele>
        <time>2020-01-06T15:49:04Z</time>
      </trkpt>
      <trkpt lat="44.52269" lon="1.38575">
        <ele>153.47</ele>
        <time>2020-01-06T15:49:19Z</time>
      </trkpt>
      <trkpt lat="44.52256" lon="1.38557">
        <ele>153.47</ele>
        <time>2020-01-06T15:49:33Z</time>
      </trkpt>
      <trkpt lat="44.52244" lon="1.38537">
        <ele>153.47</ele>
        <time>2020-01-06T15:49:49Z</time>
      </trkpt>
      <trkpt lat="44.52232" lon="1.38517">
        <ele>153.47</ele>
        <time>2020-01-06T15:50:03Z</time>
      </trkpt>
      <trkpt lat="44.5222" lon="1.38498">
        <ele>152.99</ele>
        <time>2020-01-06T15:50:16Z</time>
      </trkpt>
      <trkpt lat="44.52208" lon="1.38479">
        <ele>152.99</ele>
        <time>2020-01-06T15:50:29Z</time>
      </trkpt>
      <trkpt lat="44.52193" lon="1.38461">
        <ele>152.99</ele>
        <time>2020-01-06T15:50:43Z</time>
      </trkpt>
      <trkpt lat="44.52179" lon="1.38441">
        <ele>152.99</ele>
        <time>2020-01-06T15:50:58Z</time>
      </trkpt>
      <trkpt lat="44.52165" lon="1.38422">
        <ele>152.99</ele>
        <time>2020-01-06T15:51:12Z</time>
      </trkpt>
      <trkpt lat="44.52151" lon="1.38404">
        <ele>152.51</ele>
        <time>2020-01-06T15:51:26Z</time>
      </trkpt>
      <trkpt lat="44.52137" lon="1.38387">
        <ele>152.51</ele>
        <time>2020-01-06T15:51:42Z</time>
      </trkpt>
      <trkpt lat="44.52121" lon="1.38375">
        <ele>152.51</ele>
        <time>2020-01-06T15:51:57Z</time>
      </trkpt>
      <trkpt lat="44.52104" lon="1.38366">
        <ele>152.51</ele>
        <time>2020-01-06T15:52:10Z</time>
      </trkpt>
      <trkpt lat="44.52087" lon="1.38358">
        <ele>152.03</ele>
        <time>2020-01-06T15:52:24Z</time>
      </trkpt>
      <trkpt lat="44.52067" lon="1.38351">
        <ele>152.03</ele>
        <time>2020-01-06T15:52:39Z</time>
      </trkpt>
      <trkpt lat="44.52049" lon="1.38344">
        <ele>152.03</ele>
        <time>2020-01-06T15:52:53Z</time>
      </trkpt>
      <trkpt lat="44.5203" lon="1.38338">
        <ele>152.03</ele>
        <time>2020-01-06T15:53:08Z</time>
      </trkpt>
      <trkpt lat="44.52012" lon="1.38332">
        <ele>151.54</ele>
        <time>2020-01-06T15:53:22Z</time>
      </trkpt>
      <trkpt lat="44.51993" lon="1.38326">
        <ele>151.54</ele>
        <time>2020-01-06T15:53:36Z</time>
      </trkpt>
      <trkpt lat="44.51975" lon="1.38319">
        <ele>151.54</ele>
        <time>2020-01-06T15:53:50Z</time>
      </trkpt>
      <trkpt lat="44.51956" lon="1.38312">
        <ele>151.54</ele>
        <time>2020-01-06T15:54:05Z</time>
      </trkpt>
      <trkpt lat="44.51937" lon="1.38305">
        <ele>151.06</ele>
        <time>2020-01-06T15:54:20Z</time>
      </trkpt>
      <trkpt lat="44.51917" lon="1.38301">
        <ele>151.06</ele>
        <time>2020-01-06T15:54:35Z</time>
      </trkpt>
      <trkpt lat="44.51896" lon="1.383">
        <ele>151.06</ele>
        <time>2020-01-06T15:54:53Z</time>
      </trkpt>
      <trkpt lat="44.51875" lon="1.38296">
        <ele>151.06</ele>
        <time>2020-01-06T15:55:11Z</time>
      </trkpt>
      <trkpt lat="44.51854" lon="1.38288">
        <ele>150.58</ele>
        <time>2020-01-06T15:55:27Z</time>
      </trkpt>
      <trkpt lat="44.51833" lon="1.38279">
        <ele>150.58</ele>
        <time>2020-01-06T15:55:45Z</time>
      </trkpt>
      <trkpt lat="44.51812" lon="1.38268">
        <ele>150.58</ele>
        <time>2020-01-06T15:56:01Z</time>
      </trkpt>
      <trkpt lat="44.51795" lon="1.38253">
        <ele>150.1</ele>
        <time>2020-01-06T15:56:17Z</time>
      </trkpt>
      <trkpt lat="44.51776" lon="1.38239">
        <ele>150.1</ele>
        <time>2020-01-06T15:56:33Z</time>
      </trkpt>
      <trkpt lat="44.51758" lon="1.38226">
        <ele>150.1</ele>
        <time>2020-01-06T15:56:48Z</time>
      </trkpt>
      <trkpt lat="44.5174" lon="1.38214">
        <ele>149.62</ele>
        <time>2020-01-06T15:57:03Z</time>
      </trkpt>
      <trkpt lat="44.51723" lon="1.38201">
        <ele>149.62</ele>
        <time>2020-01-06T15:57:19Z</time>
      </trkpt>
      <trkpt lat="44.51704" lon="1.38188">
        <ele>149.62</ele>
        <time>2020-01-06T15:57:34Z</time>
      </trkpt>
      <trkpt lat="44.51687" lon="1.38176">
        <ele>149.62</ele>
        <time>2020-01-06T15:57:49Z</time>
      </trkpt>
      <trkpt lat="44.5167" lon="1.38164">
        <ele>149.14</ele>
        <time>2020-01-06T15:58:04Z</time>
      </trkpt>
      <trkpt lat="44.51653" lon="1.38149">
        <ele>149.14</ele>
        <time>2020-01-06T15:58:19Z</time>
      </trkpt>
      <trkpt lat="44.51635" lon="1.38135">
        <ele>149.14</ele>
        <time>2020-01-06T15:58:34Z</time>
      </trkpt>
      <trkpt lat="44.51616" lon="1.38123">
        <ele>149.14</ele>
        <time>2020-01-06T15:58:49Z</time>
      </trkpt>
      <trkpt lat="44.51599" lon="1.38116">
        <ele>148.66</ele>
        <time>2020-01-06T15:59:03Z</time>
      </trkpt>
      <trkpt lat="44.5158" lon="1.38109">
        <ele>148.66</ele>
        <time>2020-01-06T15:59:20Z</time>
      </trkpt>
      <trkpt lat="44.51562" lon="1.38103">
        <ele>148.66</ele>
        <time>2020-01-06T15:59:33Z</time>
      </trkpt>
      <trkpt lat="44.51546" lon="1.38101">
        <ele>148.66</ele>
        <time>2020-01-06T15:59:42Z</time>
      </trkpt>
      <trkpt lat="44.51532" lon="1.38096">
        <ele>148.66</ele>
        <time>2020-01-06T15:59:51Z</time>
      </trkpt>
      <trkpt lat="44.51527" lon="1.38087">
        <ele>148.18</ele>
        <time>2020-01-06T16:00:45Z</time>
      </trkpt>
      <trkpt lat="44.51529" lon="1.3806">
        <ele>148.18</ele>
        <time>2020-01-06T16:01:07Z</time>
      </trkpt>
      <trkpt lat="44.51534" lon="1.38034">
        <ele>148.18</ele>
        <time>2020-01-06T16:01:27Z</time>
      </trkpt>
      <trkpt lat="44.51531" lon="1.38011">
        <ele>148.18</ele>
        <time>2020-01-06T16:01:46Z</time>
      </trkpt>
      <trkpt lat="44.51514" lon="1.37996">
        <ele>148.18</ele>
        <time>2020-01-06T16:02:05Z</time>
      </trkpt>
      <trkpt lat="44.51497" lon="1.37985">
        <ele>147.7</ele>
        <time>2020-01-06T16:02:22Z</time>
      </trkpt>
      <trkpt lat="44.51478" lon="1.37974">
        <ele>147.7</ele>
        <time>2020-01-06T16:02:38Z</time>
      </trkpt>
      <trkpt lat="44.51459" lon="1.37965">
        <ele>147.7</ele>
        <time>2020-01-06T16:02:58Z</time>
      </trkpt>
      <trkpt lat="44.51441" lon="1.37954">
        <ele>147.7</ele>
        <time>2020-01-06T16:03:17Z</time>
      </trkpt>
      <trkpt lat="44.51422" lon="1.37944">
        <ele>147.7</ele>
        <time>2020-01-06T16:03:34Z</time>
      </trkpt>
      <trkpt lat="44.51406" lon="1.37931">
        <ele>147.7</ele>
        <time>2020-01-06T16:03:45Z</time>
      </trkpt>
      <trkpt lat="44.51391" lon="1.37919">
        <ele>148.18</ele>
        <time>2020-01-06T16:04:00Z</time>
      </trkpt>
      <trkpt lat="44.51376" lon="1.37903">
        <ele>148.18</ele>
        <time>2020-01-06T16:04:18Z</time>
      </trkpt>
      <trkpt lat="44.5136" lon="1.37885">
        <ele>148.18</ele>
        <time>2020-01-06T16:04:34Z</time>
      </trkpt>
      <trkpt lat="44.51344" lon="1.37866">
        <ele>148.18</ele>
        <time>2020-01-06T16:04:52Z</time>
      </trkpt>
      <trkpt lat="44.5133" lon="1.37847">
        <ele>148.18</ele>
        <time>2020-01-06T16:05:09Z</time>
      </trkpt>
      <trkpt lat="44.51313" lon="1.37831">
        <ele>148.18</ele>
        <time>2020-01-06T16:05:25Z</time>
      </trkpt>
      <trkpt lat="44.51297" lon="1.37811">
        <ele>148.18</ele>
        <time>2020-01-06T16:05:43Z</time>
      </trkpt>
      <trkpt lat="44.5128" lon="1.37797">
        <ele>148.66</ele>
        <time>2020-01-06T16:06:00Z</time>
      </trkpt>
      <trkpt lat="44.51264" lon="1.37781">
        <ele>148.66</ele>
        <time>2020-01-06T16:06:16Z</time>
      </trkpt>
      <trkpt lat="44.51251" lon="1.37761">
        <ele>148.66</ele>
        <time>2020-01-06T16:06:31Z</time>
      </trkpt>
      <trkpt lat="44.51239" lon="1.37736">
        <ele>148.66</ele>
        <time>2020-01-06T16:06:48Z</time>
      </trkpt>
      <trkpt lat="44.51228" lon="1.37714">
        <ele>148.66</ele>
        <time>2020-01-06T16:07:04Z</time>
      </trkpt>
      <trkpt lat="44.51218" lon="1.37692">
        <ele>148.66</ele>
        <time>2020-01-06T16:07:19Z</time>
      </trkpt>
      <trkpt lat="44.51211" lon="1.37666">
        <ele>148.66</ele>
        <time>2020-01-06T16:07:37Z</time>
      </trkpt>
      <trkpt lat="44.51207" lon="1.37638">
        <ele>148.66</ele>
        <time>2020-01-06T16:07:55Z</time>
      </trkpt>
      <trkpt lat="44.51196" lon="1.37616">
        <ele>148.66</ele>
        <time>2020-01-06T16:08:16Z</time>
      </trkpt>
      <trkpt lat="44.51177" lon="1.37622">
        <ele>148.66</ele>
        <time>2020-01-06T16:08:36Z</time>
      </trkpt>
      <trkpt lat="44.51159" lon="1.37628">
        <ele>148.66</ele>
        <time>2020-01-06T16:08:53Z</time>
      </trkpt>
      <trkpt lat="44.51142" lon="1.37638">
        <ele>148.66</ele>
        <time>2020-01-06T16:09:10Z</time>
      </trkpt>
      <trkpt lat="44.51136" lon="1.37651">
        <ele>148.18</ele>
        <time>2020-01-06T16:09:32Z</time>
      </trkpt>
    </trkseg>
  </trk>
</gpx>